sensor_id;sensor_type;location;lat;lon;timestamp;P1;P2;P0
74434;PMS7003;62867;52.038;29.256;2023-12-20T00:02:04;5;4.4;4
74434;PMS7003;62867;52.038;29.256;2023-12-20T00:06:58;2.5;2.5;2
74434;PMS7003;62867;52.038;29.256;2023-12-20T00:12:18;3.4;3;2.4
74434;PMS7003;62867;52.038;29.256;2023-12-20T00:16:58;2.8;2.6;2
74434;PMS7003;62867;52.038;29.256;2023-12-20T00:21:36;4.4;4;3.2
74434;PMS7003;62867;52.038;29.256;2023-12-20T00:26:46;3.2;3.2;2
74434;PMS7003;62867;52.038;29.256;2023-12-20T00:31:56;3.2;2.4;2
74434;PMS7003;62867;52.038;29.256;2023-12-20T00:37:18;3.4;2.6;2.2
74434;PMS7003;62867;52.038;29.256;2023-12-20T00:41:28;3.6;3;2.2
74434;PMS7003;62867;52.038;29.256;2023-12-20T00:46:54;4;3.2;2.6
74434;PMS7003;62867;52.038;29.256;2023-12-20T00:52:03;3.6;3.2;2.4
74434;PMS7003;62867;52.038;29.256;2023-12-20T00:56:44;4;4;3.2
74434;PMS7003;62867;52.038;29.256;2023-12-20T01:02:18;4;4;2.8
74434;PMS7003;62867;52.038;29.256;2023-12-20T01:06:42;3.3;3.3;2.5
74434;PMS7003;62867;52.038;29.256;2023-12-20T01:11:48;5.4;5.2;3.6
74434;PMS7003;62867;52.038;29.256;2023-12-20T01:16:36;3.6;3;2.4
74434;PMS7003;62867;52.038;29.256;2023-12-20T01:21:28;3.4;3.4;2.2
74434;PMS7003;62867;52.038;29.256;2023-12-20T01:27:18;4.4;4;3
74434;PMS7003;62867;52.038;29.256;2023-12-20T01:31:54;5.2;5.2;4.6
74434;PMS7003;62867;52.038;29.256;2023-12-20T01:36:28;7.2;7.2;6.6
74434;PMS7003;62867;52.038;29.256;2023-12-20T01:42:03;5.2;5;4
74434;PMS7003;62867;52.038;29.256;2023-12-20T01:46:58;4.4;4;3
74434;PMS7003;62867;52.038;29.256;2023-12-20T01:52:06;5.4;5;3.6
74434;PMS7003;62867;52.038;29.256;2023-12-20T01:56:56;5.8;5.2;4.2
74434;PMS7003;62867;52.038;29.256;2023-12-20T02:01:48;5.8;5;4.2
74434;PMS7003;62867;52.038;29.256;2023-12-20T02:06:46;5;5;3.5
74434;PMS7003;62867;52.038;29.256;2023-12-20T02:11:28;6;6;4.6
74434;PMS7003;62867;52.038;29.256;2023-12-20T02:17:18;4.4;4;2.8
74434;PMS7003;62867;52.038;29.256;2023-12-20T02:21:31;3.6;3.4;2.6
74434;PMS7003;62867;52.038;29.256;2023-12-20T02:26:28;5.6;5.4;4.2
74434;PMS7003;62867;52.038;29.256;2023-12-20T02:31:30;5;4.8;3.4
74434;PMS7003;62867;52.038;29.256;2023-12-20T02:37:18;4.6;4.2;3
74434;PMS7003;62867;52.038;29.256;2023-12-20T02:41:36;5.2;5;3.6
74434;PMS7003;62867;52.038;29.256;2023-12-20T02:46:54;6;4.8;3.2
74434;PMS7003;62867;52.038;29.256;2023-12-20T02:51:56;5;4.8;3.4
74434;PMS7003;62867;52.038;29.256;2023-12-20T02:56:28;4.8;4.2;3
74434;PMS7003;62867;52.038;29.256;2023-12-20T03:02:18;7;6.8;5.4
74434;PMS7003;62867;52.038;29.256;2023-12-20T03:06:31;5.4;5.4;4
74434;PMS7003;62867;52.038;29.256;2023-12-20T03:11:56;8;7.8;5.8
74434;PMS7003;62867;52.038;29.256;2023-12-20T03:16:28;5;4.6;3.2
74434;PMS7003;62867;52.038;29.256;2023-12-20T03:22:18;5.8;5;3.8
74434;PMS7003;62867;52.038;29.256;2023-12-20T03:27:18;7.2;6.4;4.2
74434;PMS7003;62867;52.038;29.256;2023-12-20T03:31:48;6.8;6;3.8
74434;PMS7003;62867;52.038;29.256;2023-12-20T03:36:50;6.2;5.8;3.6
74434;PMS7003;62867;52.038;29.256;2023-12-20T03:41:28;6.2;5.6;4
74434;PMS7003;62867;52.038;29.256;2023-12-20T03:46:36;5.6;5.6;4
74434;PMS7003;62867;52.038;29.256;2023-12-20T03:51:30;7.6;6.4;3.8
74434;PMS7003;62867;52.038;29.256;2023-12-20T03:56:58;7;6.6;4.2
74434;PMS7003;62867;52.038;29.256;2023-12-20T04:02:21;6.8;6.4;4.2
74434;PMS7003;62867;52.038;29.256;2023-12-20T04:06:37;7.4;6.4;4.2
74434;PMS7003;62867;52.038;29.256;2023-12-20T04:12:07;7.3;6;4.8
74434;PMS7003;62867;52.038;29.256;2023-12-20T04:17:19;6.2;6.2;4.4
74434;PMS7003;62867;52.038;29.256;2023-12-20T04:21:49;6.4;6;4.2
74434;PMS7003;62867;52.038;29.256;2023-12-20T04:26:29;6;5.4;4.4
74434;PMS7003;62867;52.038;29.256;2023-12-20T04:31:29;6.4;5.8;4.2
74434;PMS7003;62867;52.038;29.256;2023-12-20T04:36:54;6.6;5.8;4.2
74434;PMS7003;62867;52.038;29.256;2023-12-20T04:42:19;6;5.8;4.2
74434;PMS7003;62867;52.038;29.256;2023-12-20T04:46:59;6.2;5.8;4.4
74434;PMS7003;62867;52.038;29.256;2023-12-20T04:52:21;6.8;6.6;4.6
74434;PMS7003;62867;52.038;29.256;2023-12-20T04:56:55;7.6;6.8;4.6
74434;PMS7003;62867;52.038;29.256;2023-12-20T05:02:09;7.6;6.2;3.8
74434;PMS7003;62867;52.038;29.256;2023-12-20T05:07:17;5.8;5.4;3.8
74434;PMS7003;62867;52.038;29.256;2023-12-20T05:11:29;7.5;7.3;4.8
74434;PMS7003;62867;52.038;29.256;2023-12-20T05:16:55;7.4;7.2;5.4
74434;PMS7003;62867;52.038;29.256;2023-12-20T05:22:17;6.6;6.2;4.2
74434;PMS7003;62867;52.038;29.256;2023-12-20T05:26:55;8.2;6.6;5
74434;PMS7003;62867;52.038;29.256;2023-12-20T05:32:19;11.6;10.6;8.2
74434;PMS7003;62867;52.038;29.256;2023-12-20T05:36:31;8;7.8;6
74434;PMS7003;62867;52.038;29.256;2023-12-20T05:41:39;10.8;10.6;8.6
74434;PMS7003;62867;52.038;29.256;2023-12-20T05:46:51;9.8;9;7.2
74434;PMS7003;62867;52.038;29.256;2023-12-20T05:52:07;9;8.2;5.6
74434;PMS7003;62867;52.038;29.256;2023-12-20T05:57:19;10.2;9.8;7.6
74434;PMS7003;62867;52.038;29.256;2023-12-20T06:02:09;8.4;7;5.2
74434;PMS7003;62867;52.038;29.256;2023-12-20T06:06:51;6.8;6.2;4.8
74434;PMS7003;62867;52.038;29.256;2023-12-20T06:11:29;8.5;7;4
74434;PMS7003;62867;52.038;29.256;2023-12-20T06:16:47;6.6;6.2;4.4
74434;PMS7003;62867;52.038;29.256;2023-12-20T06:22:11;7;5.8;4.4
74434;PMS7003;62867;52.038;29.256;2023-12-20T06:26:59;10.8;9.6;7.6
74434;PMS7003;62867;52.038;29.256;2023-12-20T06:32:09;7;6.6;4.8
74434;PMS7003;62867;52.038;29.256;2023-12-20T06:36:47;9.6;8.8;6.8
74434;PMS7003;62867;52.038;29.256;2023-12-20T06:42:19;11;10.6;8.6
74434;PMS7003;62867;52.038;29.256;2023-12-20T06:47:19;12.8;12.4;10.4
74434;PMS7003;62867;52.038;29.256;2023-12-20T06:52:19;8.6;7.6;5
74434;PMS7003;62867;52.038;29.256;2023-12-20T06:56:37;8.4;8;6
74434;PMS7003;62867;52.038;29.256;2023-12-20T07:01:27;12;11.6;9.4
74434;PMS7003;62867;52.038;29.256;2023-12-20T07:07:19;12;12;9.6
74434;PMS7003;62867;52.038;29.256;2023-12-20T07:12:21;14.5;13.8;12.3
74434;PMS7003;62867;52.038;29.256;2023-12-20T07:17:21;14.2;13.4;11
74434;PMS7003;62867;52.038;29.256;2023-12-20T07:22:11;10.2;9.4;7.6
74434;PMS7003;62867;52.038;29.256;2023-12-20T07:26:55;7.2;7;5.2
74434;PMS7003;62867;52.038;29.256;2023-12-20T07:32:19;7.6;7.6;5.2
74434;PMS7003;62867;52.038;29.256;2023-12-20T07:37:19;6.6;6;4.6
74434;PMS7003;62867;52.038;29.256;2023-12-20T07:41:49;16.8;16.6;14
74434;PMS7003;62867;52.038;29.256;2023-12-20T07:46:35;16.8;16.6;14
74434;PMS7003;62867;52.038;29.256;2023-12-20T07:51:35;12.2;11.4;9.8
74434;PMS7003;62867;52.038;29.256;2023-12-20T07:57:07;14;13.4;12
74434;PMS7003;62867;52.038;29.256;2023-12-20T08:02:17;9.2;8.4;6
74434;PMS7003;62867;52.038;29.256;2023-12-20T08:06:59;8.6;7.4;5.8
74434;PMS7003;62867;52.038;29.256;2023-12-20T08:11:49;10.4;9.8;7.6
74434;PMS7003;62867;52.038;29.256;2023-12-20T08:16:29;15.5;15.3;13
74434;PMS7003;62867;52.038;29.256;2023-12-20T08:21:41;9.6;9.2;6.6
74434;PMS7003;62867;52.038;29.256;2023-12-20T08:27:19;9;9;6.8
74434;PMS7003;62867;52.038;29.256;2023-12-20T08:32:15;8.8;8.4;7
74434;PMS7003;62867;52.038;29.256;2023-12-20T08:36:47;11;11;8.4
74434;PMS7003;62867;52.038;29.256;2023-12-20T08:41:29;11.4;10.2;8.2
74434;PMS7003;62867;52.038;29.256;2023-12-20T08:46:59;6.8;6.2;5
74434;PMS7003;62867;52.038;29.256;2023-12-20T08:52:17;4.8;4.8;3.4
74434;PMS7003;62867;52.038;29.256;2023-12-20T08:56:31;8.8;8.4;7
74434;PMS7003;62867;52.038;29.256;2023-12-20T09:01:49;4.2;4;3
74434;PMS7003;62867;52.038;29.256;2023-12-20T09:07:22;6.4;5.6;4.4
74434;PMS7003;62867;52.038;29.256;2023-12-20T09:12:17;5;4.6;3
74434;PMS7003;62867;52.038;29.256;2023-12-20T09:17:17;11.8;10.8;9.3
74434;PMS7003;62867;52.038;29.256;2023-12-20T09:22:19;9.6;9.6;8
74434;PMS7003;62867;52.038;29.256;2023-12-20T09:26:27;8.2;8.2;6.6
74434;PMS7003;62867;52.038;29.256;2023-12-20T09:31:55;5.6;5;3.6
74434;PMS7003;62867;52.038;29.256;2023-12-20T09:36:37;6;5.6;4.6
74434;PMS7003;62867;52.038;29.256;2023-12-20T09:42:21;3.4;3.4;2.4
74434;PMS7003;62867;52.038;29.256;2023-12-20T09:46:57;3.8;3.6;2.4
74434;PMS7003;62867;52.038;29.256;2023-12-20T09:51:39;4.3;4.3;3.3
74434;PMS7003;62867;52.038;29.256;2023-12-20T09:56:55;4.6;4;3.2
74434;PMS7003;62867;52.038;29.256;2023-12-20T10:01:57;6.4;5.8;4
74434;PMS7003;62867;52.038;29.256;2023-12-20T10:07:19;6.6;6;4
74434;PMS7003;62867;52.038;29.256;2023-12-20T10:11:41;6.6;6.4;4.2
74434;PMS7003;62867;52.038;29.256;2023-12-20T10:16:29;8.6;7.8;5.2
74434;PMS7003;62867;52.038;29.256;2023-12-20T10:21:43;5.8;5.8;3.8
74434;PMS7003;62867;52.038;29.256;2023-12-20T10:26:47;7.4;7;4.2
74434;PMS7003;62867;52.038;29.256;2023-12-20T10:32:22;8.2;7.4;5.4
74434;PMS7003;62867;52.038;29.256;2023-12-20T10:36:47;3.8;3.4;2.6
74434;PMS7003;62867;52.038;29.256;2023-12-20T10:42:09;3.2;2.8;2.2
74434;PMS7003;62867;52.038;29.256;2023-12-20T10:46:45;4.4;4;3.6
74434;PMS7003;62867;52.038;29.256;2023-12-20T10:51:41;3.5;3.5;2.8
74434;PMS7003;62867;52.038;29.256;2023-12-20T10:57:19;2.2;2.2;2.2
74434;PMS7003;62867;52.038;29.256;2023-12-20T11:01:37;3.6;3.6;2.4
74434;PMS7003;62867;52.038;29.256;2023-12-20T11:06:31;5;5;4.4
74434;PMS7003;62867;52.038;29.256;2023-12-20T11:11:29;3.8;3.6;3
74434;PMS7003;62867;52.038;29.256;2023-12-20T11:17:19;6.2;5.8;5.2
74434;PMS7003;62867;52.038;29.256;2023-12-20T11:21:57;6.2;6.2;5.6
74434;PMS7003;62867;52.038;29.256;2023-12-20T11:26:47;2;2;1.4
74434;PMS7003;62867;52.038;29.256;2023-12-20T11:32:27;7.8;7.8;7.2
74434;PMS7003;62867;52.038;29.256;2023-12-20T11:36:32;6.4;6;5.2
74434;PMS7003;62867;52.038;29.256;2023-12-20T11:41:37;7.6;7.6;6
74434;PMS7003;62867;52.038;29.256;2023-12-20T11:47:01;6.6;6.4;5.2
74434;PMS7003;62867;52.038;29.256;2023-12-20T11:51:29;7;6.5;5.3
74434;PMS7003;62867;52.038;29.256;2023-12-20T11:56:29;13;13;13
74434;PMS7003;62867;52.038;29.256;2023-12-20T12:01:35;6.6;6.2;4.8
74434;PMS7003;62867;52.038;29.256;2023-12-20T12:06:29;11.8;11.8;10.6
74434;PMS7003;62867;52.038;29.256;2023-12-20T12:12:19;3.8;3.8;3.2
74434;PMS7003;62867;52.038;29.256;2023-12-20T12:17:19;6.8;6.8;6
74434;PMS7003;62867;52.038;29.256;2023-12-20T12:22:09;5.6;5.4;4.8
74434;PMS7003;62867;52.038;29.256;2023-12-20T12:26:56;3.2;3.2;2.6
74434;PMS7003;62867;52.038;29.256;2023-12-20T12:31:51;3.2;3;2.6
74434;PMS7003;62867;52.038;29.256;2023-12-20T12:37:03;3.2;3;2.2
74434;PMS7003;62867;52.038;29.256;2023-12-20T12:41:45;3.4;3.2;2.2
74434;PMS7003;62867;52.038;29.256;2023-12-20T12:47:21;4.8;4.5;3.3
74434;PMS7003;62867;52.038;29.256;2023-12-20T12:51:45;4;3.8;2.8
74434;PMS7003;62867;52.038;29.256;2023-12-20T12:56:43;21.2;18.6;17.8
74434;PMS7003;62867;52.038;29.256;2023-12-20T13:02:19;8.2;6.8;5.8
74434;PMS7003;62867;52.038;29.256;2023-12-20T13:07:21;8.2;8.2;7
74434;PMS7003;62867;52.038;29.256;2023-12-20T13:12:09;7.4;7;5.6
74434;PMS7003;62867;52.038;29.256;2023-12-20T13:17:19;7.2;7;6
74434;PMS7003;62867;52.038;29.256;2023-12-20T13:21:37;6.4;5.4;4.4
74434;PMS7003;62867;52.038;29.256;2023-12-20T13:26:43;4.4;4.4;3.2
74434;PMS7003;62867;52.038;29.256;2023-12-20T13:31:36;3.2;3;2.4
74434;PMS7003;62867;52.038;29.256;2023-12-20T13:36:29;5.4;5.4;4.6
74434;PMS7003;62867;52.038;29.256;2023-12-20T13:41:29;3.8;3.6;2.6
74434;PMS7003;62867;52.038;29.256;2023-12-20T13:46:45;8;7.5;6.5
74434;PMS7003;62867;52.038;29.256;2023-12-20T13:52:19;4.4;4.4;3.2
74434;PMS7003;62867;52.038;29.256;2023-12-20T13:57:21;6.2;6.2;5.4
74434;PMS7003;62867;52.038;29.256;2023-12-20T14:02:11;4;3.8;2.8
74434;PMS7003;62867;52.038;29.256;2023-12-20T14:07:19;4.4;4;3.2
74434;PMS7003;62867;52.038;29.256;2023-12-20T14:11:49;4;3.8;3
74434;PMS7003;62867;52.038;29.256;2023-12-20T14:17:09;6.6;6.6;5.4
74434;PMS7003;62867;52.038;29.256;2023-12-20T14:21:29;4.4;4.4;3.4
74434;PMS7003;62867;52.038;29.256;2023-12-20T14:26:49;6.8;5.8;4.6
74434;PMS7003;62867;52.038;29.256;2023-12-20T14:32:13;7.8;7.2;5.2
74434;PMS7003;62867;52.038;29.256;2023-12-20T14:37:17;5.2;4.8;3.6
74434;PMS7003;62867;52.038;29.256;2023-12-20T14:42:19;5.4;5;4
74434;PMS7003;62867;52.038;29.256;2023-12-20T14:47:05;8;7.8;5
74434;PMS7003;62867;52.038;29.256;2023-12-20T14:52:09;7.4;6.6;5.6
74434;PMS7003;62867;52.038;29.256;2023-12-20T14:57:21;5.6;5.2;4.2
74434;PMS7003;62867;52.038;29.256;2023-12-20T15:01:59;6.8;6.4;5.2
74434;PMS7003;62867;52.038;29.256;2023-12-20T15:07:11;6.2;6;4.8
74434;PMS7003;62867;52.038;29.256;2023-12-20T15:12:09;4.6;3.6;3
74434;PMS7003;62867;52.038;29.256;2023-12-20T15:16:29;5;5;3.6
74434;PMS7003;62867;52.038;29.256;2023-12-20T15:21:29;7;6.4;4.4
74434;PMS7003;62867;52.038;29.256;2023-12-20T15:26:38;6;6;4.8
74434;PMS7003;62867;52.038;29.256;2023-12-20T15:32:19;4.8;4.2;3
74434;PMS7003;62867;52.038;29.256;2023-12-20T15:37:17;6.4;6.2;5
74434;PMS7003;62867;52.038;29.256;2023-12-20T15:42:09;2.8;2.6;2.4
74434;PMS7003;62867;52.038;29.256;2023-12-20T15:46:57;8.3;8.3;7.5
74434;PMS7003;62867;52.038;29.256;2023-12-20T15:51:55;2.8;2.8;2.6
74434;PMS7003;62867;52.038;29.256;2023-12-20T15:56:55;3.6;3;2.2
74434;PMS7003;62867;52.038;29.256;2023-12-20T16:01:33;3;2.8;1.8
74434;PMS7003;62867;52.038;29.256;2023-12-20T16:06:45;2.6;2.4;1.8
74434;PMS7003;62867;52.038;29.256;2023-12-20T16:11:55;2.4;2.4;2
74434;PMS7003;62867;52.038;29.256;2023-12-20T16:16:47;2.4;2.2;2
74434;PMS7003;62867;52.038;29.256;2023-12-20T16:22:05;3.4;3.2;2.6
74434;PMS7003;62867;52.038;29.256;2023-12-20T16:27:05;3.6;3.4;2.6
74434;PMS7003;62867;52.038;29.256;2023-12-20T16:32:17;5.8;5.4;4.6
74434;PMS7003;62867;52.038;29.256;2023-12-20T16:37:21;6;5.4;4.8
74434;PMS7003;62867;52.038;29.256;2023-12-20T16:41:35;6.4;6.2;5.6
74434;PMS7003;62867;52.038;29.256;2023-12-20T16:47:03;15.4;14.2;12
74434;PMS7003;62867;52.038;29.256;2023-12-20T16:52:19;5.8;5.8;4.8
74434;PMS7003;62867;52.038;29.256;2023-12-20T16:56:27;7.8;7.4;6.6
74434;PMS7003;62867;52.038;29.256;2023-12-20T17:01:29;6.8;6.2;4.4
74434;PMS7003;62867;52.038;29.256;2023-12-20T17:06:35;6.6;6.2;4.6
74434;PMS7003;62867;52.038;29.256;2023-12-20T17:12:17;4.2;4.2;3
74434;PMS7003;62867;52.038;29.256;2023-12-20T17:16:57;3.4;3.4;2.6
74434;PMS7003;62867;52.038;29.256;2023-12-20T17:21:59;6.4;6;4.6
74434;PMS7003;62867;52.038;29.256;2023-12-20T17:27:17;11;10.8;8.8
74434;PMS7003;62867;52.038;29.256;2023-12-20T17:31:49;6;5.8;4.8
74434;PMS7003;62867;52.038;29.256;2023-12-20T17:37:19;13.6;13.6;12.8
74434;PMS7003;62867;52.038;29.256;2023-12-20T17:41:29;6.4;6.4;5.4
74434;PMS7003;62867;52.038;29.256;2023-12-20T17:46:29;5.6;5;3.6
74434;PMS7003;62867;52.038;29.256;2023-12-20T17:52:05;3.3;3.3;2.3
74434;PMS7003;62867;52.038;29.256;2023-12-20T17:57:01;6;5.4;4.6
74434;PMS7003;62867;52.038;29.256;2023-12-20T18:01:29;8.2;7;5.4
74434;PMS7003;62867;52.038;29.256;2023-12-20T18:06:55;7.8;7.4;6.8
74434;PMS7003;62867;52.038;29.256;2023-12-20T18:12:17;4.2;3.8;2.6
74434;PMS7003;62867;52.038;29.256;2023-12-20T18:17:21;10.2;9.8;8.2
74434;PMS7003;62867;52.038;29.256;2023-12-20T18:21:37;8.8;8.8;7.6
74434;PMS7003;62867;52.038;29.256;2023-12-20T18:27:21;4.8;4.8;3.8
74434;PMS7003;62867;52.038;29.256;2023-12-20T18:31:27;11;10.6;9
74434;PMS7003;62867;52.038;29.256;2023-12-20T18:36:29;6;6;5.4
74434;PMS7003;62867;52.038;29.256;2023-12-20T18:42:05;1.8;1.8;1.4
74434;PMS7003;62867;52.038;29.256;2023-12-20T18:46:29;2.2;2;1.6
74434;PMS7003;62867;52.038;29.256;2023-12-20T18:51:55;2;1.8;1.8
74434;PMS7003;62867;52.038;29.256;2023-12-20T18:57:17;5.2;4.8;4.4
74434;PMS7003;62867;52.038;29.256;2023-12-20T19:02:21;3.4;3.4;3.4
74434;PMS7003;62867;52.038;29.256;2023-12-20T19:07:19;3.6;3.2;2.4
74434;PMS7003;62867;52.038;29.256;2023-12-20T19:11:47;3;3;1.8
74434;PMS7003;62867;52.038;29.256;2023-12-20T19:17:17;2.6;2.6;2.4
74434;PMS7003;62867;52.038;29.256;2023-12-20T19:21:27;2.8;2.8;2.4
74434;PMS7003;62867;52.038;29.256;2023-12-20T19:26:43;2.6;2;1.4
74434;PMS7003;62867;52.038;29.256;2023-12-20T19:31:43;3.4;3.2;2.6
74434;PMS7003;62867;52.038;29.256;2023-12-20T19:36:45;2.6;2.6;2
74434;PMS7003;62867;52.038;29.256;2023-12-20T19:41:47;1.6;1.2;1
74434;PMS7003;62867;52.038;29.256;2023-12-20T19:47:09;2.4;2.4;1.6
74434;PMS7003;62867;52.038;29.256;2023-12-20T19:52:17;2.5;2.3;1.8
74434;PMS7003;62867;52.038;29.256;2023-12-20T19:57:19;3.2;2.8;2.2
74434;PMS7003;62867;52.038;29.256;2023-12-20T20:02:11;4.2;3.6;3
74434;PMS7003;62867;52.038;29.256;2023-12-20T20:07:21;5.2;4.8;4.6
74434;PMS7003;62867;52.038;29.256;2023-12-20T20:11:35;11.8;11.8;10.6
74434;PMS7003;62867;52.038;29.256;2023-12-20T20:17:09;10.2;10.2;9.6
74434;PMS7003;62867;52.038;29.256;2023-12-20T20:22:05;6;5.4;4.6
74434;PMS7003;62867;52.038;29.256;2023-12-20T20:26:37;4;4;3.6
74434;PMS7003;62867;52.038;29.256;2023-12-20T20:32:05;4.8;4.6;4
74434;PMS7003;62867;52.038;29.256;2023-12-20T20:36:55;3.6;3.6;3.4
74434;PMS7003;62867;52.038;29.256;2023-12-20T20:42:19;5.8;5.4;5.4
74434;PMS7003;62867;52.038;29.256;2023-12-20T20:47:17;6.6;6.4;5.6
74434;PMS7003;62867;52.038;29.256;2023-12-20T20:51:53;8.3;8.3;8
74434;PMS7003;62867;52.038;29.256;2023-12-20T20:56:35;6.6;6.6;6.6
74434;PMS7003;62867;52.038;29.256;2023-12-20T21:01:29;3.2;3.2;3.2
74434;PMS7003;62867;52.038;29.256;2023-12-20T21:06:49;1;1;1
74434;PMS7003;62867;52.038;29.256;2023-12-20T21:12:21;1.8;1.8;1.6
74434;PMS7003;62867;52.038;29.256;2023-12-20T21:16:55;0.2;0.2;0.2
74434;PMS7003;62867;52.038;29.256;2023-12-20T21:22:03;3.2;3.2;3.2
74434;PMS7003;62867;52.038;29.256;2023-12-20T21:27:05;0.2;0.2;0.2
74434;PMS7003;62867;52.038;29.256;2023-12-20T21:31:37;0;0;0
74434;PMS7003;62867;52.038;29.256;2023-12-20T21:37:19;3.6;3.6;3.6
74434;PMS7003;62867;52.038;29.256;2023-12-20T21:41:39;5.6;5.6;5.2
74434;PMS7003;62867;52.038;29.256;2023-12-20T21:46:29;8.6;8.4;8
74434;PMS7003;62867;52.038;29.256;2023-12-20T21:51:29;11.4;11.2;10.6
74434;PMS7003;62867;52.038;29.256;2023-12-20T21:56:29;4.3;3.5;3.3
74434;PMS7003;62867;52.038;29.256;2023-12-20T22:02:03;12;11.8;11
74434;PMS7003;62867;52.038;29.256;2023-12-20T22:06:29;9.8;9.8;9.4
74434;PMS7003;62867;52.038;29.256;2023-12-20T22:11:29;12.4;12.4;12
74434;PMS7003;62867;52.038;29.256;2023-12-20T22:17:03;18.8;18.8;18
74434;PMS7003;62867;52.038;29.256;2023-12-20T22:21:29;22.4;20.8;18.6
74434;PMS7003;62867;52.038;29.256;2023-12-20T22:27:19;20.6;20.4;19.2
74434;PMS7003;62867;52.038;29.256;2023-12-20T22:32:01;18.8;18.8;17.6
74434;PMS7003;62867;52.038;29.256;2023-12-20T22:36:37;18;18;17.4
74434;PMS7003;62867;52.038;29.256;2023-12-20T22:41:29;10.4;10.2;10.2
74434;PMS7003;62867;52.038;29.256;2023-12-20T22:47:09;1.8;1.8;1.6
74434;PMS7003;62867;52.038;29.256;2023-12-20T22:51:53;6.8;6.8;6.8
74434;PMS7003;62867;52.038;29.256;2023-12-20T22:56:29;3.3;3.3;3
74434;PMS7003;62867;52.038;29.256;2023-12-20T23:01:53;4.4;3.6;3.6
74434;PMS7003;62867;52.038;29.256;2023-12-20T23:07:03;2.8;2.8;2.6
74434;PMS7003;62867;52.038;29.256;2023-12-20T23:11:55;9.8;9.8;9.8
74434;PMS7003;62867;52.038;29.256;2023-12-20T23:17:21;3.6;3.2;3.2
74434;PMS7003;62867;52.038;29.256;2023-12-20T23:21:53;3.8;3.8;3.8
74434;PMS7003;62867;52.038;29.256;2023-12-20T23:26:43;2.4;2.4;2.2
74434;PMS7003;62867;52.038;29.256;2023-12-20T23:32:01;5;5;4.8
74434;PMS7003;62867;52.038;29.256;2023-12-20T23:36:29;13.8;13.8;13.6
74434;PMS7003;62867;52.038;29.256;2023-12-20T23:42:19;10.8;10.6;10.6
74434;PMS7003;62867;52.038;29.256;2023-12-20T23:46:51;9.2;9.2;9.2
74434;PMS7003;62867;52.038;29.256;2023-12-20T23:51:53;8.4;8.4;8.2
74434;PMS7003;62867;52.038;29.256;2023-12-20T23:56:57;22.5;20.5;18.3
